createdAt,value
2017-11-05T00:00:33.006Z,8.30
2017-11-05T00:03:01.871Z,8.30
2017-11-05T00:05:30.719Z,8.30
2017-11-05T00:07:59.574Z,8.30
2017-11-05T00:10:28.428Z,8.40
2017-11-05T00:12:57.278Z,8.40
2017-11-05T00:15:26.910Z,8.40
2017-11-05T00:17:55.774Z,8.40
2017-11-05T00:20:25.387Z,8.50
2017-11-05T00:22:54.999Z,8.50
2017-11-05T00:25:23.867Z,8.50
2017-11-05T00:27:52.717Z,8.50
2017-11-05T00:30:21.555Z,8.50
2017-11-05T00:32:50.399Z,8.50
2017-11-05T00:35:19.238Z,8.50
2017-11-05T00:37:48.095Z,8.50
2017-11-05T00:40:16.948Z,8.50
2017-11-05T00:42:45.795Z,8.50
2017-11-05T00:45:14.661Z,8.50
2017-11-05T00:47:43.513Z,8.50
2017-11-05T00:50:13.139Z,8.50
2017-11-05T00:52:41.992Z,8.50
2017-11-05T00:55:10.833Z,8.50
2017-11-05T00:57:39.706Z,8.50
2017-11-05T01:00:08.593Z,8.50
2017-11-05T01:02:37.447Z,8.50
2017-11-05T01:05:05.963Z,8.50
2017-11-05T01:07:35.586Z,8.60
2017-11-05T01:10:04.134Z,8.50
2017-11-05T01:12:32.995Z,8.60
2017-11-05T01:15:01.847Z,8.60
2017-11-05T01:17:30.702Z,8.60
2017-11-05T01:19:59.571Z,8.60
2017-11-05T01:22:28.422Z,8.60
2017-11-05T01:24:57.271Z,8.60
2017-11-05T01:27:26.118Z,8.60
2017-11-05T01:29:55.482Z,8.60
2017-11-05T01:32:25.172Z,8.70
2017-11-05T01:34:54.037Z,8.70
2017-11-05T01:37:22.926Z,8.60
2017-11-05T01:39:52.768Z,8.60
2017-11-05T01:42:21.610Z,8.60
2017-11-05T01:44:50.464Z,8.70
2017-11-05T01:47:20.079Z,8.70
2017-11-05T01:49:49.712Z,8.70
2017-11-05T01:52:18.400Z,8.70
2017-11-05T01:54:48.021Z,8.70
2017-11-05T01:57:16.887Z,8.70
2017-11-05T01:59:45.976Z,8.70
2017-11-05T02:02:15.602Z,8.70
2017-11-05T02:04:44.521Z,8.70
2017-11-05T02:07:12.730Z,8.70
2017-11-05T02:09:41.554Z,8.80
2017-11-05T02:12:10.418Z,8.80
2017-11-05T02:14:38.939Z,8.80
2017-11-05T02:17:07.808Z,8.80
2017-11-05T02:19:37.168Z,8.80
2017-11-05T02:22:06.570Z,8.80
2017-11-05T02:24:35.087Z,8.80
2017-11-05T02:27:05.267Z,8.80
2017-11-05T02:29:33.790Z,8.80
2017-11-05T02:32:03.573Z,8.80
2017-11-05T02:34:32.468Z,8.70
2017-11-05T02:37:01.071Z,8.80
2017-11-05T02:39:29.932Z,8.70
2017-11-05T02:41:58.779Z,8.70
2017-11-05T02:44:28.439Z,8.70
2017-11-05T02:46:56.650Z,8.70
2017-11-05T02:49:25.607Z,8.70
2017-11-05T02:51:54.141Z,8.70
2017-11-05T02:54:23.785Z,8.70
2017-11-05T02:56:52.323Z,8.70
2017-11-05T02:59:21.635Z,8.60
2017-11-05T03:01:50.897Z,8.60
2017-11-05T03:04:20.770Z,8.60
2017-11-05T03:06:49.352Z,8.60
2017-11-05T03:09:17.951Z,8.60
2017-11-05T03:11:46.159Z,8.60
2017-11-05T03:14:14.351Z,8.60
2017-11-05T03:16:42.539Z,8.60
2017-11-05T03:19:11.843Z,8.60
2017-11-05T03:21:40.075Z,8.60
2017-11-05T03:24:08.278Z,8.60
2017-11-05T03:26:37.257Z,8.60
2017-11-05T03:29:05.481Z,8.60
2017-11-05T03:31:34.608Z,8.60
2017-11-05T03:34:03.199Z,8.60
2017-11-05T03:36:31.627Z,8.60
2017-11-05T03:39:00.586Z,8.60
2017-11-05T03:41:29.113Z,8.60
2017-11-05T03:43:57.647Z,8.60
2017-11-05T03:46:25.832Z,8.60
2017-11-05T03:48:54.380Z,8.60
2017-11-05T03:51:22.859Z,8.60
2017-11-05T03:53:52.341Z,8.60
2017-11-05T03:56:21.228Z,8.60
2017-11-05T03:58:49.824Z,8.60
2017-11-05T04:01:19.644Z,8.60
2017-11-05T04:03:48.743Z,8.60
2017-11-05T04:06:17.291Z,8.60
2017-11-05T04:08:45.493Z,8.60
2017-11-05T04:11:14.375Z,8.60
2017-11-05T04:13:43.232Z,8.60
2017-11-05T04:16:11.803Z,8.60
2017-11-05T04:18:40.433Z,8.60
2017-11-05T04:21:09.398Z,8.60
2017-11-05T04:23:37.957Z,8.60
2017-11-05T04:26:06.852Z,8.60
2017-11-05T04:28:36.063Z,8.60
2017-11-05T04:31:04.608Z,8.60
2017-11-05T04:33:33.145Z,8.60
2017-11-05T04:36:01.342Z,8.60
2017-11-05T04:38:30.146Z,8.60
2017-11-05T04:40:59.025Z,8.50
2017-11-05T04:43:27.562Z,8.50
2017-11-05T04:45:56.105Z,8.50
2017-11-05T04:48:24.640Z,8.60
2017-11-05T04:50:53.192Z,8.50
2017-11-05T04:53:22.326Z,8.50
2017-11-05T04:55:50.881Z,8.50
2017-11-05T04:58:18.922Z,8.40
2017-11-05T05:00:47.882Z,8.40
2017-11-05T05:03:16.107Z,8.40
2017-11-05T05:05:44.311Z,8.40
2017-11-05T05:08:12.991Z,8.40
2017-11-05T05:10:41.708Z,8.30
2017-11-05T05:13:10.840Z,8.30
2017-11-05T05:15:39.040Z,8.30
2017-11-05T05:18:08.559Z,8.20
2017-11-05T05:20:37.854Z,8.20
2017-11-05T05:23:07.182Z,8.20
2017-11-05T05:25:36.085Z,8.10
2017-11-05T05:28:04.641Z,8.10
2017-11-05T05:30:33.170Z,8.10
2017-11-05T05:33:02.475Z,8.00
2017-11-05T05:35:31.421Z,8.00
2017-11-05T05:37:59.639Z,8.00
2017-11-05T05:40:29.387Z,8.00
2017-11-05T05:42:57.596Z,7.90
2017-11-05T05:45:26.147Z,8.00
2017-11-05T05:47:54.687Z,7.90
2017-11-05T05:50:22.853Z,7.90
2017-11-05T05:52:51.386Z,7.90
2017-11-05T05:55:19.543Z,7.90
2017-11-05T05:57:47.756Z,7.80
2017-11-05T06:00:15.956Z,7.80
2017-11-05T06:02:45.461Z,7.80
2017-11-05T06:05:13.669Z,7.80
2017-11-05T06:07:41.858Z,7.80
2017-11-05T06:10:10.759Z,7.80
2017-11-05T06:12:39.286Z,7.80
2017-11-05T06:15:07.515Z,7.70
2017-11-05T06:17:36.644Z,7.70
2017-11-05T06:20:05.586Z,7.70
2017-11-05T06:22:33.774Z,7.70
2017-11-05T06:25:03.024Z,7.80
2017-11-05T06:27:31.230Z,7.80
2017-11-05T06:29:59.467Z,7.80
2017-11-05T06:32:27.688Z,7.80
2017-11-05T06:34:56.259Z,7.90
2017-11-05T06:37:25.101Z,7.90
2017-11-05T06:39:53.294Z,7.90
2017-11-05T06:42:21.507Z,7.90
2017-11-05T06:44:50.869Z,8.00
2017-11-05T06:47:18.912Z,8.00
2017-11-05T06:49:47.444Z,8.10
2017-11-05T06:52:16.415Z,8.10
2017-11-05T06:54:45.168Z,8.10
2017-11-05T06:57:14.153Z,8.20
2017-11-05T06:59:42.347Z,8.20
2017-11-05T07:02:10.894Z,8.30
2017-11-05T07:04:40.538Z,8.30
2017-11-05T07:07:09.068Z,8.30
2017-11-05T07:09:37.304Z,8.40
2017-11-05T07:12:05.503Z,8.40
2017-11-05T07:14:34.044Z,8.40
2017-11-05T07:17:02.247Z,8.50
2017-11-05T07:19:30.444Z,8.50
2017-11-05T07:21:59.012Z,8.50
2017-11-05T07:24:27.594Z,8.50
2017-11-05T07:26:56.470Z,8.50
2017-11-05T07:29:24.487Z,8.60
2017-11-05T07:31:52.707Z,8.60
2017-11-05T07:34:20.883Z,8.60
2017-11-05T07:36:49.062Z,8.70
2017-11-05T07:39:17.235Z,8.70
2017-11-05T07:41:46.167Z,8.70
2017-11-05T07:44:15.318Z,8.70
2017-11-05T07:46:43.523Z,8.70
2017-11-05T07:49:11.718Z,8.80
2017-11-05T07:51:39.918Z,8.80
2017-11-05T07:54:09.524Z,8.70
2017-11-05T07:56:39.151Z,8.80
2017-11-05T07:59:07.571Z,8.80
2017-11-05T08:06:44.360Z,8.90
2017-11-05T08:09:18.112Z,8.90
2017-11-05T08:11:47.150Z,8.90
2017-11-05T08:14:15.364Z,9.10
2017-11-05T08:16:43.960Z,9.10
2017-11-05T08:19:12.172Z,9.20
2017-11-05T08:21:41.458Z,9.30
2017-11-05T08:24:10.599Z,9.20
2017-11-05T08:26:39.488Z,9.30
2017-11-05T08:29:08.355Z,9.30
2017-11-05T08:31:37.970Z,9.40
2017-11-05T08:34:06.830Z,9.40
2017-11-05T08:36:35.674Z,9.40
2017-11-05T08:39:03.850Z,9.40
2017-11-05T08:41:32.030Z,9.40
2017-11-05T08:44:00.874Z,9.40
2017-11-05T08:46:30.481Z,9.50
2017-11-05T08:48:59.380Z,9.50
2017-11-05T08:51:28.985Z,9.60
2017-11-05T08:53:58.603Z,9.70
2017-11-05T08:56:28.274Z,9.70
2017-11-05T08:58:57.130Z,9.70
2017-11-05T09:01:25.302Z,9.70
2017-11-05T09:03:53.492Z,9.70
2017-11-05T09:06:22.343Z,9.60
2017-11-05T09:08:51.973Z,9.50
2017-11-05T09:11:20.174Z,9.50
2017-11-05T09:13:49.023Z,9.40
2017-11-05T09:16:18.339Z,9.40
2017-11-05T09:18:47.192Z,9.30
2017-11-05T09:21:16.040Z,9.30
2017-11-05T09:23:44.886Z,9.30
2017-11-05T09:26:13.084Z,9.30
2017-11-05T09:28:41.923Z,9.30
2017-11-05T09:31:12.040Z,9.30
2017-11-05T09:33:40.900Z,9.30
2017-11-05T09:36:09.776Z,9.40
2017-11-05T09:38:38.623Z,9.40
2017-11-05T09:41:07.486Z,9.40
2017-11-05T09:43:36.324Z,9.50
2017-11-05T09:46:05.939Z,9.60
2017-11-05T09:48:35.673Z,9.60
2017-11-05T09:51:04.506Z,9.60
2017-11-05T09:53:33.398Z,9.60
2017-11-05T09:56:02.287Z,9.70
2017-11-05T09:58:31.159Z,9.70
2017-11-05T10:01:00.255Z,9.70
2017-11-05T10:03:29.098Z,9.70
2017-11-05T10:05:58.704Z,9.70
2017-11-05T10:08:28.355Z,9.70
2017-11-05T10:10:57.686Z,9.60
2017-11-05T10:13:26.632Z,9.70
2017-11-05T10:15:55.505Z,9.70
2017-11-05T10:18:25.127Z,9.80
2017-11-05T10:20:54.038Z,9.80
2017-11-05T10:23:22.894Z,10.50
2017-11-05T10:25:52.518Z,10.50
2017-11-05T10:28:22.190Z,10.50
2017-11-05T10:30:51.071Z,10.50
2017-11-05T10:33:21.482Z,10.40
2017-11-05T10:35:51.381Z,10.30
2017-11-05T10:38:20.476Z,10.40
2017-11-05T10:40:50.499Z,10.90
2017-11-05T10:43:19.635Z,11.40
2017-11-05T10:45:50.144Z,11.70
2017-11-05T10:48:19.338Z,11.70
2017-11-05T10:50:49.798Z,11.80
2017-11-05T10:53:19.016Z,11.70
2017-11-05T10:55:49.133Z,11.60
2017-11-05T10:58:19.194Z,11.80
2017-11-05T11:00:48.356Z,11.80
2017-11-05T11:03:18.219Z,11.90
2017-11-05T11:05:47.470Z,11.90
2017-11-05T11:08:17.367Z,12.20
2017-11-05T11:10:46.508Z,12.20
2017-11-05T11:13:15.633Z,12.40
2017-11-05T11:15:45.465Z,12.60
2017-11-05T11:18:17.380Z,12.60
2017-11-05T11:20:46.508Z,12.60
2017-11-05T11:23:15.718Z,12.50
2017-11-05T11:25:44.650Z,12.50
2017-11-05T11:28:14.550Z,12.30
2017-11-05T11:30:46.435Z,12.30
2017-11-05T11:33:15.553Z,12.30
2017-11-05T11:35:45.498Z,12.40
2017-11-05T11:38:14.676Z,12.60
2017-11-05T11:40:44.833Z,12.60
2017-11-05T11:43:13.944Z,12.90
2017-11-05T11:45:43.844Z,13.10
2017-11-05T11:48:12.788Z,13.10
2017-11-05T11:50:41.855Z,12.90
2017-11-05T11:53:11.756Z,13.00
2017-11-05T11:55:40.836Z,13.00
2017-11-05T11:58:12.806Z,12.80
2017-11-05T12:00:42.020Z,12.60
2017-11-05T12:03:11.661Z,12.90
2017-11-05T12:05:40.540Z,12.80
2017-11-05T12:08:09.714Z,12.90
2017-11-05T12:10:39.669Z,13.10
2017-11-05T12:13:09.462Z,13.00
2017-11-05T12:15:40.320Z,13.20
2017-11-05T12:18:09.490Z,13.20
2017-11-05T12:20:40.268Z,13.30
2017-11-05T12:23:09.364Z,13.20
2017-11-05T12:25:38.236Z,13.30
2017-11-05T12:28:07.101Z,13.20
2017-11-05T12:30:36.629Z,12.20
2017-11-05T12:33:05.511Z,12.20
2017-11-05T12:35:34.383Z,12.00
2017-11-05T12:38:03.235Z,11.90
2017-11-05T12:40:32.117Z,11.70
2017-11-05T12:43:00.939Z,11.60
2017-11-05T12:45:29.816Z,11.50
2017-11-05T12:47:58.665Z,11.50
2017-11-05T12:50:27.520Z,11.40
2017-11-05T12:52:56.383Z,11.30
2017-11-05T12:55:25.223Z,11.30
2017-11-05T12:57:54.836Z,11.20
2017-11-05T13:00:24.487Z,11.20
2017-11-05T13:02:53.347Z,11.20
2017-11-05T13:05:22.959Z,11.20
2017-11-05T13:07:52.759Z,11.10
2017-11-05T13:10:21.624Z,11.20
2017-11-05T13:12:50.470Z,11.10
2017-11-05T13:15:19.326Z,11.10
2017-11-05T13:17:48.950Z,11.10
2017-11-05T13:20:17.479Z,11.00
2017-11-05T13:22:46.318Z,11.00
2017-11-05T13:25:15.937Z,11.00
2017-11-05T13:27:44.787Z,11.00
2017-11-05T13:30:13.633Z,11.00
2017-11-05T13:32:42.535Z,11.00
2017-11-05T13:35:11.396Z,11.00
2017-11-05T13:37:40.233Z,11.00
2017-11-05T13:40:09.187Z,11.10
2017-11-05T13:42:38.229Z,11.10
2017-11-05T13:45:07.131Z,11.20
2017-11-05T13:47:35.997Z,11.20
2017-11-05T13:50:04.548Z,11.20
2017-11-05T13:52:33.404Z,11.20
2017-11-05T13:55:02.262Z,11.20
2017-11-05T13:57:32.074Z,11.20
2017-11-05T14:00:01.911Z,11.20
2017-11-05T14:02:30.811Z,11.20
2017-11-05T14:04:59.672Z,11.20
2017-11-05T14:07:28.519Z,11.20
2017-11-05T14:09:58.145Z,11.20
2017-11-05T14:12:27.001Z,11.20
2017-11-05T14:14:56.618Z,11.20
2017-11-05T14:17:26.350Z,11.20
2017-11-05T14:19:55.208Z,11.20
2017-11-05T14:22:24.832Z,11.10
2017-11-05T14:24:54.515Z,11.00
2017-11-05T14:27:23.377Z,11.00
2017-11-05T14:29:52.253Z,10.90
2017-11-05T14:32:21.119Z,10.90
2017-11-05T14:34:50.736Z,10.80
2017-11-05T14:37:19.591Z,10.80
2017-11-05T14:39:48.473Z,10.80
2017-11-05T14:42:17.319Z,10.70
2017-11-05T14:44:46.178Z,10.70
2017-11-05T14:47:16.372Z,10.60
2017-11-05T14:49:45.230Z,10.60
2017-11-05T14:52:14.110Z,10.50
2017-11-05T14:54:42.296Z,10.50
2017-11-05T14:57:11.168Z,10.50
2017-11-05T14:59:40.029Z,10.50
2017-11-05T15:02:08.895Z,10.50
2017-11-05T15:04:37.772Z,10.40
2017-11-05T15:07:06.618Z,10.40
2017-11-05T15:09:37.213Z,10.40
2017-11-05T15:12:06.088Z,10.40
2017-11-05T15:14:34.956Z,10.40
2017-11-05T15:17:08.075Z,10.40
2017-11-05T15:19:37.559Z,10.40
2017-11-05T15:22:06.833Z,10.40
2017-11-05T15:24:36.493Z,10.40
2017-11-05T15:27:05.031Z,10.40
2017-11-05T15:29:34.723Z,10.30
2017-11-05T15:32:03.251Z,10.30
2017-11-05T15:34:32.215Z,10.30
2017-11-05T15:37:01.755Z,10.30
2017-11-05T15:39:31.448Z,10.30
2017-11-05T15:44:37.669Z,11.50
2017-11-05T15:47:06.908Z,12.10
2017-11-05T15:49:36.035Z,11.40
2017-11-05T15:52:05.328Z,11.40
2017-11-05T15:54:35.631Z,11.10
2017-11-05T15:57:04.443Z,10.90
2017-11-05T15:59:33.144Z,10.80
2017-11-05T16:04:41.934Z,10.60
2017-11-05T16:07:12.845Z,10.60
2017-11-05T16:09:42.562Z,10.50
2017-11-05T16:12:12.744Z,10.50
2017-11-05T16:14:41.627Z,10.40
2017-11-05T16:17:11.383Z,10.40
2017-11-05T16:19:40.956Z,10.40
2017-11-05T16:22:10.643Z,10.40
2017-11-05T16:24:40.018Z,10.40
2017-11-05T16:27:08.911Z,10.30
2017-11-05T16:29:38.705Z,10.30
2017-11-05T16:32:07.294Z,10.30
2017-11-05T16:34:36.198Z,10.30
2017-11-05T16:37:05.078Z,10.30
2017-11-05T16:39:35.880Z,10.30
2017-11-05T16:42:05.258Z,10.30
2017-11-05T16:44:34.964Z,10.30
2017-11-05T16:47:03.842Z,10.30
2017-11-05T16:49:32.751Z,10.30
2017-11-05T16:52:01.634Z,10.30
2017-11-05T16:54:31.700Z,10.30
2017-11-05T16:57:00.557Z,10.30
2017-11-05T16:59:30.887Z,10.30
2017-11-05T17:01:59.481Z,10.30
2017-11-05T17:04:28.715Z,10.40
2017-11-05T17:09:31.869Z,10.40
2017-11-05T17:12:01.997Z,10.40
2017-11-05T17:14:31.811Z,10.40
2017-11-05T17:17:02.272Z,10.40
2017-11-05T17:19:31.855Z,10.40
2017-11-05T17:22:01.496Z,10.40
2017-11-05T17:24:31.053Z,10.40
2017-11-05T17:27:01.031Z,10.50
2017-11-05T17:29:29.747Z,10.50
2017-11-05T17:31:58.740Z,10.50
2017-11-05T17:34:29.184Z,10.50
2017-11-05T17:36:58.155Z,10.50
2017-11-05T17:39:27.833Z,10.40
2017-11-05T17:41:56.700Z,10.40
2017-11-05T17:44:25.558Z,10.40
2017-11-05T17:46:55.267Z,10.30
2017-11-05T17:49:24.150Z,10.30
2017-11-05T17:51:56.405Z,10.40
2017-11-05T17:54:29.387Z,11.20
2017-11-05T17:56:58.702Z,12.10
2017-11-05T17:59:29.038Z,12.90
2017-11-05T18:01:59.294Z,12.90
2017-11-05T18:04:28.168Z,13.00
2017-11-05T18:06:57.855Z,13.20
2017-11-05T18:09:28.327Z,13.40
2017-11-05T18:11:57.980Z,13.60
2017-11-05T18:14:26.898Z,13.60
2017-11-05T18:16:55.840Z,13.10
2017-11-05T18:19:24.801Z,12.30
2017-11-05T18:21:54.612Z,11.90
2017-11-05T18:24:28.275Z,11.70
2017-11-05T18:26:57.996Z,11.50
2017-11-05T18:29:27.901Z,11.30
2017-11-05T18:31:56.742Z,11.10
2017-11-05T18:34:27.268Z,10.80
2017-11-05T18:36:59.605Z,10.70
2017-11-05T18:39:28.482Z,10.70
2017-11-05T18:41:58.879Z,10.50
2017-11-05T18:50:42.949Z,10.30
2017-11-05T18:55:46.954Z,10.20
2017-11-05T18:58:19.200Z,10.10
2017-11-05T19:00:52.617Z,10.00
2017-11-05T19:06:00.888Z,9.90
2017-11-05T19:08:29.785Z,9.80
2017-11-05T19:10:58.696Z,9.70
2017-11-05T19:13:28.725Z,9.60
2017-11-05T19:15:57.590Z,9.60
2017-11-05T19:18:27.162Z,9.60
2017-11-05T19:20:56.487Z,9.50
2017-11-05T19:26:27.328Z,9.40
2017-11-05T19:35:00.711Z,9.40
2017-11-05T19:40:21.626Z,9.30
2017-11-05T19:45:56.996Z,9.20
2017-11-05T19:48:31.621Z,9.10
2017-11-05T19:51:08.562Z,9.10
2017-11-05T19:53:37.127Z,9.10
2017-11-05T19:56:06.898Z,9.10
2017-11-05T19:58:36.949Z,9.10
2017-11-05T20:01:06.595Z,9.10
2017-11-05T20:03:35.940Z,9.00
2017-11-05T20:06:04.483Z,9.00
2017-11-05T20:08:34.122Z,8.90
2017-11-05T20:11:03.864Z,8.90
2017-11-05T20:13:32.755Z,8.90
2017-11-05T20:16:02.464Z,8.90
2017-11-05T20:18:32.482Z,8.80
2017-11-05T20:21:01.976Z,8.80
2017-11-05T20:23:30.929Z,8.80
2017-11-05T20:25:59.766Z,8.80
2017-11-05T20:28:28.679Z,8.70
2017-11-05T20:30:58.367Z,8.80
2017-11-05T20:33:26.939Z,8.70
2017-11-05T20:35:56.698Z,8.80
2017-11-05T20:38:25.647Z,8.70
2017-11-05T20:43:36.313Z,8.70
2017-11-05T20:46:09.632Z,8.70
2017-11-05T20:48:38.480Z,8.70
2017-11-05T20:51:08.206Z,8.70
2017-11-05T20:53:37.821Z,8.60
2017-11-05T20:56:06.664Z,8.60
2017-11-05T20:58:35.496Z,8.60
2017-11-05T21:01:05.100Z,8.60
2017-11-05T21:03:34.716Z,8.60
2017-11-05T21:06:03.793Z,8.60
2017-11-05T21:08:32.616Z,8.60
2017-11-05T21:11:01.458Z,8.60
2017-11-05T21:13:30.777Z,8.60
2017-11-05T21:15:59.617Z,8.60
2017-11-05T21:18:28.458Z,8.50
2017-11-05T21:20:58.068Z,8.40
2017-11-05T21:23:27.679Z,8.40
2017-11-05T21:25:57.297Z,8.40
2017-11-05T21:28:26.913Z,8.30
2017-11-05T21:30:55.838Z,8.30
2017-11-05T21:33:25.250Z,8.30
2017-11-05T21:35:54.202Z,8.30
2017-11-05T21:38:23.672Z,8.20
2017-11-05T21:40:52.527Z,8.20
2017-11-05T21:46:15.412Z,8.10
2017-11-05T21:48:44.571Z,8.10
2017-11-05T21:51:13.415Z,8.10
2017-11-05T21:53:42.314Z,8.00
2017-11-05T21:56:14.999Z,8.00
2017-11-05T21:58:44.581Z,8.00
2017-11-05T22:01:13.444Z,8.00
2017-11-05T22:03:43.096Z,7.90
2017-11-05T22:06:12.263Z,7.90
2017-11-05T22:08:44.360Z,7.90
2017-11-05T22:11:14.569Z,7.90
2017-11-05T22:13:43.455Z,7.90
2017-11-05T22:16:12.303Z,7.90
2017-11-05T22:18:41.134Z,7.90
2017-11-05T22:21:10.304Z,7.80
2017-11-05T22:23:39.168Z,7.90
2017-11-05T22:26:08.278Z,7.80
2017-11-05T22:28:37.892Z,7.80
2017-11-05T22:31:06.718Z,7.80
2017-11-05T22:33:35.579Z,7.80
2017-11-05T22:36:05.680Z,7.80
2017-11-05T22:38:34.520Z,7.80
2017-11-05T22:41:09.356Z,7.80
2017-11-05T22:46:24.511Z,7.70
2017-11-05T22:48:55.294Z,7.70
2017-11-05T22:51:24.629Z,7.70
2017-11-05T22:53:54.803Z,7.70
2017-11-05T22:56:24.998Z,7.60
2017-11-05T22:58:56.366Z,7.70
2017-11-05T23:04:05.111Z,7.70
2017-11-05T23:06:33.946Z,7.70
2017-11-05T23:09:08.009Z,7.70
2017-11-05T23:11:42.875Z,7.70
2017-11-05T23:14:11.724Z,7.70
2017-11-05T23:16:40.559Z,7.70
2017-11-05T23:19:13.227Z,7.70
2017-11-05T23:24:27.558Z,7.70
2017-11-05T23:27:01.272Z,7.80
2017-11-05T23:29:32.344Z,7.80
2017-11-05T23:32:01.240Z,7.80
2017-11-05T23:34:30.350Z,7.80
2017-11-05T23:37:01.117Z,7.80
2017-11-05T23:39:30.847Z,7.90
2017-11-05T23:42:05.664Z,7.90
2017-11-05T23:44:36.312Z,7.90
2017-11-05T23:47:05.222Z,7.90
2017-11-05T23:49:33.993Z,7.90
2017-11-05T23:52:02.834Z,7.90
2017-11-05T23:57:18.067Z,7.80
2017-11-05T23:59:48.644Z,7.90
